createdAt,value
2018-04-19T00:00:45.716Z,16.23
2018-04-19T00:03:13.463Z,17.10
2018-04-19T00:05:46.007Z,16.90
2018-04-19T00:08:15.339Z,17.33
2018-04-19T00:10:44.378Z,17.90
2018-04-19T00:13:12.201Z,17.40
2018-04-19T00:15:39.918Z,18.23
2018-04-19T00:18:07.633Z,15.73
2018-04-19T00:20:35.731Z,15.93
2018-04-19T00:23:03.651Z,15.57
2018-04-19T00:25:31.628Z,14.83
2018-04-19T00:27:59.411Z,15.63
2018-04-19T00:30:28.175Z,16.10
2018-04-19T00:32:55.824Z,16.23
2018-04-19T00:35:23.626Z,15.20
2018-04-19T00:37:51.394Z,16.23
2018-04-19T00:40:19.276Z,17.40
2018-04-19T00:42:46.955Z,15.93
2018-04-19T00:45:14.879Z,17.63
2018-04-19T00:47:42.522Z,17.57
2018-04-19T00:50:10.157Z,16.77
2018-04-19T00:55:42.633Z,17.33
2018-04-19T00:58:10.343Z,17.57
2018-04-19T01:00:38.411Z,16.43
2018-04-19T01:03:06.207Z,17.00
2018-04-19T01:05:33.943Z,17.00
2018-04-19T01:08:01.610Z,15.20
2018-04-19T01:10:29.330Z,14.93
2018-04-19T01:12:56.967Z,15.70
2018-04-19T01:15:24.737Z,16.27
2018-04-19T01:17:52.760Z,17.07
2018-04-19T01:20:20.645Z,15.77
2018-04-19T01:22:48.266Z,16.67
2018-04-19T01:25:16.024Z,15.40
2018-04-19T01:27:44.035Z,15.17
2018-04-19T01:30:12.098Z,16.97
2018-04-19T01:32:39.715Z,16.60
2018-04-19T01:35:07.316Z,17.27
2018-04-19T01:37:35.053Z,15.57
2018-04-19T01:40:02.776Z,16.17
2018-04-19T01:42:30.438Z,16.10
2018-04-19T01:44:58.283Z,15.40
2018-04-19T01:47:26.135Z,16.67
2018-04-19T01:49:53.815Z,16.97
2018-04-19T01:52:21.389Z,16.50
2018-04-19T01:54:49.447Z,16.30
2018-04-19T01:57:17.057Z,18.17
2018-04-19T01:59:44.893Z,17.60
2018-04-19T02:02:12.820Z,17.60
2018-04-19T02:04:40.443Z,18.43
2018-04-19T02:07:08.160Z,15.73
2018-04-19T02:09:35.753Z,17.10
2018-04-19T02:12:03.735Z,19.23
2018-04-19T02:14:31.387Z,17.93
2018-04-19T02:16:58.977Z,19.90
2018-04-19T02:19:26.602Z,17.50
2018-04-19T02:21:54.191Z,17.70
2018-04-19T02:24:21.885Z,19.30
2018-04-19T02:26:49.974Z,17.80
2018-04-19T02:29:18.043Z,20.10
2018-04-19T02:31:45.694Z,18.43
2018-04-19T02:34:13.304Z,18.77
2018-04-19T02:36:41.043Z,19.53
2018-04-19T02:39:08.635Z,18.07
2018-04-19T02:41:36.312Z,20.40
2018-04-19T02:44:03.952Z,18.90
2018-04-19T02:46:31.602Z,18.77
2018-04-19T02:48:59.244Z,20.93
2018-04-19T02:51:26.902Z,19.60
2018-04-19T02:53:54.571Z,18.97
2018-04-19T02:56:22.831Z,21.00
2018-04-19T02:58:50.424Z,19.23
2018-04-19T03:01:18.125Z,19.37
2018-04-19T03:03:45.887Z,19.47
2018-04-19T03:06:13.890Z,20.03
2018-04-19T03:08:42.072Z,17.40
2018-04-19T03:11:09.665Z,19.60
2018-04-19T03:13:37.247Z,18.30
2018-04-19T03:16:04.916Z,18.97
2018-04-19T03:18:32.588Z,20.37
2018-04-19T03:21:00.364Z,18.20
2018-04-19T03:23:28.015Z,19.30
2018-04-19T03:25:55.947Z,21.10
2018-04-19T03:28:23.558Z,18.57
2018-04-19T03:30:51.209Z,21.50
2018-04-19T03:33:18.862Z,18.73
2018-04-19T03:35:46.861Z,18.73
2018-04-19T03:38:14.903Z,20.07
2018-04-19T03:40:42.750Z,21.07
2018-04-19T03:43:10.431Z,17.93
2018-04-19T03:45:38.278Z,21.00
2018-04-19T03:48:05.940Z,20.70
2018-04-19T03:50:33.527Z,21.27
2018-04-19T03:53:01.414Z,22.27
2018-04-19T03:55:29.073Z,22.40
2018-04-19T03:57:56.687Z,21.80
2018-04-19T04:00:24.612Z,20.97
2018-04-19T04:02:52.679Z,24.50
2018-04-19T04:05:20.281Z,25.83
2018-04-19T04:07:47.948Z,23.60
2018-04-19T04:10:15.552Z,22.67
2018-04-19T04:12:43.162Z,23.80
2018-04-19T04:15:10.964Z,22.53
2018-04-19T04:17:50.738Z,22.93
2018-04-19T04:20:30.106Z,22.47
2018-04-19T04:26:01.729Z,23.40
2018-04-19T04:28:29.380Z,23.60
2018-04-19T04:30:56.994Z,22.77
2018-04-19T04:33:25.050Z,23.87
2018-04-19T04:35:52.769Z,25.33
2018-04-19T04:38:20.449Z,23.97
2018-04-19T04:40:48.115Z,24.47
2018-04-19T04:43:15.737Z,24.30
2018-04-19T04:45:43.781Z,23.20
2018-04-19T04:48:11.382Z,22.73
2018-04-19T04:50:39.112Z,23.50
2018-04-19T04:53:06.730Z,25.60
2018-04-19T04:55:34.353Z,22.23
2018-04-19T04:58:02.037Z,23.30
2018-04-19T05:00:29.730Z,23.07
2018-04-19T05:02:57.503Z,24.90
2018-04-19T05:05:25.496Z,24.07
2018-04-19T05:07:53.193Z,23.93
2018-04-19T05:10:20.850Z,22.90
2018-04-19T05:12:48.912Z,22.07
2018-04-19T05:15:16.965Z,23.33
2018-04-19T05:17:44.600Z,23.80
2018-04-19T05:20:12.287Z,25.53
2018-04-19T05:22:40.154Z,23.77
2018-04-19T05:25:08.239Z,24.17
2018-04-19T05:27:35.870Z,23.37
2018-04-19T05:30:03.846Z,25.00
2018-04-19T05:32:31.524Z,24.17
2018-04-19T05:34:59.119Z,24.40
2018-04-19T05:37:26.852Z,22.87
2018-04-19T05:39:54.619Z,24.70
2018-04-19T05:42:22.305Z,23.37
2018-04-19T05:44:49.909Z,22.53
2018-04-19T05:47:17.532Z,24.43
2018-04-19T05:49:45.149Z,26.57
2018-04-19T05:52:12.751Z,24.90
2018-04-19T05:54:40.935Z,23.47
2018-04-19T05:57:08.577Z,25.07
2018-04-19T05:59:36.204Z,25.67
2018-04-19T06:02:03.835Z,24.80
2018-04-19T06:04:31.436Z,23.60
2018-04-19T06:06:59.167Z,23.93
2018-04-19T06:09:26.837Z,23.10
2018-04-19T06:11:54.450Z,24.30
2018-04-19T06:14:22.212Z,25.37
2018-04-19T06:16:49.826Z,25.80
2018-04-19T06:19:17.451Z,25.50
2018-04-19T06:21:45.573Z,23.87
2018-04-19T06:24:13.254Z,24.63
2018-04-19T06:26:40.854Z,24.30
2018-04-19T06:29:08.669Z,24.27
2018-04-19T06:31:36.653Z,23.33
2018-04-19T06:34:04.252Z,23.23
2018-04-19T06:36:31.873Z,24.47
2018-04-19T06:38:59.534Z,22.33
2018-04-19T06:41:27.777Z,24.37
2018-04-19T06:43:55.390Z,22.47
2018-04-19T06:46:22.973Z,23.60
2018-04-19T06:48:50.596Z,23.17
2018-04-19T06:51:18.671Z,21.90
2018-04-19T06:53:46.383Z,23.87
2018-04-19T06:56:14.129Z,22.27
2018-04-19T06:58:41.756Z,21.07
2018-04-19T07:01:09.435Z,21.13
2018-04-19T07:03:37.162Z,22.80
2018-04-19T07:06:04.768Z,20.30
2018-04-19T07:08:32.436Z,19.20
2018-04-19T07:11:00.037Z,21.67
2018-04-19T07:13:27.913Z,21.97
2018-04-19T07:15:55.695Z,19.53
2018-04-19T07:18:23.288Z,20.27
2018-04-19T07:20:51.225Z,19.10
2018-04-19T07:23:18.842Z,21.37
2018-04-19T07:25:46.587Z,19.83
2018-04-19T07:28:14.256Z,20.37
2018-04-19T07:30:41.961Z,19.63
2018-04-19T07:33:09.548Z,17.10
2018-04-19T07:35:37.139Z,18.90
2018-04-19T07:38:04.930Z,19.30
2018-04-19T07:40:32.523Z,19.73
2018-04-19T07:43:00.106Z,19.10
2018-04-19T07:45:27.731Z,19.23
2018-04-19T07:47:55.434Z,18.47
2018-04-19T07:50:23.363Z,17.23
2018-04-19T07:52:50.961Z,17.37
2018-04-19T07:55:18.759Z,19.40
2018-04-19T07:57:46.406Z,16.97
2018-04-19T08:00:14.024Z,18.10
2018-04-19T08:02:41.638Z,17.60
2018-04-19T08:05:09.569Z,18.67
2018-04-19T08:07:37.256Z,18.40
2018-04-19T08:10:04.899Z,17.67
2018-04-19T08:12:32.558Z,17.93
2018-04-19T08:15:00.213Z,17.87
2018-04-19T08:17:27.861Z,18.60
2018-04-19T08:19:55.456Z,19.10
2018-04-19T08:22:23.273Z,18.43
2018-04-19T08:24:50.874Z,19.50
2018-04-19T08:27:18.810Z,17.87
2018-04-19T08:29:46.448Z,17.70
2018-04-19T08:32:14.096Z,17.50
2018-04-19T08:34:41.844Z,16.10
2018-04-19T08:37:09.703Z,15.57
2018-04-19T08:39:37.364Z,15.67
2018-04-19T08:42:05.215Z,16.33
2018-04-19T08:44:33.030Z,16.90
2018-04-19T08:47:00.768Z,16.97
2018-04-19T08:49:28.415Z,16.40
2018-04-19T08:51:56.895Z,16.73
2018-04-19T08:54:24.594Z,16.63
2018-04-19T08:56:52.187Z,15.67
2018-04-19T08:59:20.287Z,16.60
2018-04-19T09:01:48.030Z,16.50
2018-04-19T09:04:15.659Z,15.07
2018-04-19T09:06:43.319Z,15.00
2018-04-19T09:09:11.342Z,16.03
2018-04-19T09:11:39.004Z,15.20
2018-04-19T09:14:06.609Z,15.50
2018-04-19T09:16:34.261Z,18.50
2018-04-19T09:19:01.915Z,15.97
2018-04-19T09:21:29.569Z,17.20
2018-04-19T09:23:57.229Z,13.57
2018-04-19T09:26:24.846Z,14.73
2018-04-19T09:28:52.588Z,16.47
2018-04-19T09:31:20.181Z,14.07
2018-04-19T09:33:48.932Z,14.50
2018-04-19T09:36:16.567Z,15.80
2018-04-19T09:38:44.250Z,14.13
2018-04-19T09:41:13.040Z,13.50
2018-04-19T09:43:41.632Z,14.43
2018-04-19T09:46:09.331Z,17.10
2018-04-19T09:48:36.968Z,14.60
2018-04-19T09:51:04.946Z,13.47
2018-04-19T09:53:32.667Z,13.00
2018-04-19T09:56:00.740Z,13.90
2018-04-19T09:58:28.458Z,13.43
2018-04-19T10:01:01.543Z,14.13
2018-04-19T10:03:29.254Z,12.63
2018-04-19T10:06:00.754Z,11.17
2018-04-19T10:08:28.435Z,9.77
2018-04-19T10:10:56.601Z,11.00
2018-04-19T10:13:24.475Z,9.97
2018-04-19T10:15:52.407Z,10.10
2018-04-19T10:18:20.075Z,9.80
2018-04-19T10:20:48.069Z,10.77
2018-04-19T10:23:15.707Z,11.07
2018-04-19T10:25:43.372Z,10.93
2018-04-19T10:28:10.968Z,9.97
2018-04-19T10:30:38.924Z,9.20
2018-04-19T10:33:06.521Z,9.20
2018-04-19T10:35:34.148Z,8.90
2018-04-19T10:38:02.143Z,8.87
2018-04-19T10:40:29.757Z,10.00
2018-04-19T10:42:57.846Z,8.67
2018-04-19T10:45:25.501Z,8.97
2018-04-19T10:47:53.115Z,10.90
2018-04-19T10:50:22.021Z,8.87
2018-04-19T10:52:49.614Z,8.00
2018-04-19T10:55:17.317Z,9.03
2018-04-19T10:57:45.039Z,10.00
2018-04-19T11:00:12.873Z,11.20
2018-04-19T11:02:40.609Z,9.90
2018-04-19T11:05:08.201Z,8.23
2018-04-19T11:07:36.113Z,8.13
2018-04-19T11:10:03.731Z,8.80
2018-04-19T11:12:31.408Z,9.40
2018-04-19T11:14:59.026Z,9.70
2018-04-19T11:17:26.957Z,10.20
2018-04-19T11:19:54.660Z,10.37
2018-04-19T11:22:22.719Z,9.67
2018-04-19T11:24:50.317Z,8.40
2018-04-19T11:27:18.049Z,6.70
2018-04-19T11:29:45.668Z,5.97
2018-04-19T11:32:13.325Z,5.80
2018-04-19T11:34:41.076Z,8.27
2018-04-19T11:37:08.792Z,5.80
2018-04-19T11:39:36.531Z,4.97
2018-04-19T11:42:04.184Z,6.10
2018-04-19T11:44:31.859Z,6.50
2018-04-19T11:47:00.662Z,6.20
2018-04-19T11:49:28.268Z,6.30
2018-04-19T11:51:55.973Z,5.60
2018-04-19T11:54:23.586Z,7.50
2018-04-19T11:56:51.517Z,5.03
2018-04-19T11:59:19.357Z,5.90
2018-04-19T12:01:47.017Z,4.47
2018-04-19T12:04:14.653Z,4.57
2018-04-19T12:06:42.400Z,3.73
2018-04-19T12:09:09.993Z,3.60
2018-04-19T12:11:37.627Z,4.50
2018-04-19T12:14:05.296Z,4.40
2018-04-19T12:16:32.936Z,3.63
2018-04-19T12:19:00.514Z,4.27
2018-04-19T12:21:28.144Z,4.40
2018-04-19T12:23:55.817Z,4.50
2018-04-19T12:26:23.512Z,4.93
2018-04-19T12:28:51.175Z,4.40
2018-04-19T12:31:18.767Z,5.37
2018-04-19T12:33:46.495Z,5.40
2018-04-19T12:36:14.131Z,6.53
2018-04-19T12:38:41.717Z,5.30
2018-04-19T12:41:09.391Z,5.30
2018-04-19T12:43:37.221Z,6.87
2018-04-19T12:46:04.838Z,5.93
2018-04-19T12:48:32.493Z,5.40
2018-04-19T12:51:00.288Z,6.00
2018-04-19T12:53:27.880Z,5.00
2018-04-19T12:55:55.475Z,4.80
2018-04-19T12:58:23.512Z,5.20
2018-04-19T13:00:51.087Z,5.00
2018-04-19T13:03:18.684Z,4.50
2018-04-19T13:05:46.283Z,4.70
2018-04-19T13:08:13.919Z,3.23
2018-04-19T13:10:41.890Z,3.60
2018-04-19T13:13:09.590Z,3.67
2018-04-19T13:15:37.261Z,4.50
2018-04-19T13:18:05.045Z,3.70
2018-04-19T13:20:32.690Z,2.80
2018-04-19T13:23:00.272Z,3.27
2018-04-19T13:25:27.891Z,2.90
2018-04-19T13:27:55.502Z,3.03
2018-04-19T13:30:23.284Z,2.90
2018-04-19T13:32:50.904Z,2.23
2018-04-19T13:35:18.572Z,3.33
2018-04-19T13:37:46.162Z,2.57
2018-04-19T13:40:13.788Z,2.90
2018-04-19T13:42:41.453Z,2.87
2018-04-19T13:45:09.372Z,2.63
2018-04-19T13:47:37.007Z,2.90
2018-04-19T13:50:04.607Z,2.50
2018-04-19T13:52:32.683Z,2.60
2018-04-19T13:55:00.321Z,2.00
2018-04-19T13:57:27.968Z,2.07
2018-04-19T13:59:55.672Z,2.20
2018-04-19T14:02:23.345Z,1.87
2018-04-19T14:04:50.956Z,2.13
2018-04-19T14:07:18.552Z,2.50
2018-04-19T14:09:46.223Z,2.27
2018-04-19T14:12:13.820Z,1.87
2018-04-19T14:14:41.432Z,1.80
2018-04-19T14:17:09.181Z,2.43
2018-04-19T14:19:36.809Z,2.20
2018-04-19T14:22:04.400Z,2.30
2018-04-19T14:24:32.420Z,2.10
2018-04-19T14:27:00.008Z,2.30
2018-04-19T14:29:27.597Z,2.27
2018-04-19T14:31:55.202Z,2.00
2018-04-19T14:34:22.803Z,2.27
2018-04-19T14:36:50.416Z,1.70
2018-04-19T14:39:18.068Z,2.10
2018-04-19T14:41:46.190Z,1.77
2018-04-19T14:44:13.855Z,1.63
2018-04-19T14:46:41.532Z,2.00
2018-04-19T14:49:09.167Z,1.83
2018-04-19T14:51:36.813Z,1.90
2018-04-19T14:54:04.465Z,2.00
2018-04-19T14:56:32.178Z,1.93
2018-04-19T14:58:59.775Z,1.60
2018-04-19T15:01:27.397Z,1.90
2018-04-19T15:03:55.064Z,1.53
2018-04-19T15:06:22.683Z,1.63
2018-04-19T15:08:50.613Z,2.10
2018-04-19T15:11:18.298Z,2.10
2018-04-19T15:13:45.925Z,2.10
2018-04-19T15:16:13.558Z,2.90
2018-04-19T15:18:41.606Z,2.97
2018-04-19T15:21:09.252Z,3.73
2018-04-19T15:23:36.975Z,3.10
2018-04-19T15:26:04.602Z,2.73
2018-04-19T15:28:32.182Z,2.90
2018-04-19T15:30:59.802Z,2.30
2018-04-19T15:33:27.465Z,2.70
2018-04-19T15:35:56.169Z,4.10
2018-04-19T15:38:23.782Z,4.63
2018-04-19T15:40:51.758Z,3.30
2018-04-19T15:43:19.622Z,3.90
2018-04-19T15:45:47.408Z,5.20
2018-04-19T15:48:15.021Z,4.90
2018-04-19T15:50:43.322Z,4.03
2018-04-19T15:53:11.024Z,4.50
2018-04-19T15:55:38.678Z,4.53
2018-04-19T15:58:06.586Z,4.67
2018-04-19T16:00:34.281Z,5.03
2018-04-19T16:03:01.874Z,5.70
2018-04-19T16:05:29.620Z,4.00
2018-04-19T16:07:57.324Z,5.00
2018-04-19T16:10:24.901Z,3.80
2018-04-19T16:12:52.577Z,4.03
2018-04-19T16:15:21.050Z,4.53
2018-04-19T16:17:48.938Z,4.20
2018-04-19T16:20:16.821Z,4.50
2018-04-19T16:22:44.441Z,4.33
2018-04-19T16:25:12.114Z,5.60
2018-04-19T16:27:40.244Z,5.27
2018-04-19T16:30:07.902Z,4.50
2018-04-19T16:32:35.563Z,4.70
2018-04-19T16:35:03.226Z,5.20
2018-04-19T16:37:30.936Z,4.63
2018-04-19T16:39:58.688Z,4.17
2018-04-19T16:42:26.314Z,4.27
2018-04-19T16:44:54.046Z,3.93
2018-04-19T16:47:25.755Z,4.13
2018-04-19T16:49:54.359Z,4.40
2018-04-19T16:52:30.862Z,4.33
2018-04-19T16:54:58.854Z,3.80
2018-04-19T16:57:26.450Z,3.67
2018-04-19T16:59:54.064Z,3.87
2018-04-19T17:02:22.039Z,4.13
2018-04-19T17:04:49.715Z,3.50
2018-04-19T17:07:17.318Z,3.47
2018-04-19T17:09:44.954Z,3.70
2018-04-19T17:12:12.625Z,4.17
2018-04-19T17:14:40.284Z,3.80
2018-04-19T17:17:07.951Z,3.50
2018-04-19T17:19:35.672Z,4.03
2018-04-19T17:22:03.378Z,3.23
2018-04-19T17:24:31.104Z,3.37
2018-04-19T17:26:59.059Z,3.93
2018-04-19T17:29:26.741Z,3.37
2018-04-19T17:31:54.685Z,3.40
2018-04-19T17:34:22.297Z,4.17
2018-04-19T17:36:50.221Z,3.60
2018-04-19T17:39:17.852Z,3.40
2018-04-19T17:41:45.572Z,3.30
2018-04-19T17:44:13.191Z,3.57
2018-04-19T17:46:40.798Z,4.67
2018-04-19T17:49:08.874Z,3.50
2018-04-19T17:51:36.818Z,4.00
2018-04-19T17:54:04.440Z,4.40
2018-04-19T17:56:32.625Z,4.57
2018-04-19T17:59:00.640Z,3.60
2018-04-19T18:01:28.304Z,4.40
2018-04-19T18:03:55.913Z,5.10
2018-04-19T18:06:23.571Z,4.93
2018-04-19T18:08:51.220Z,4.67
2018-04-19T18:11:18.855Z,4.13
2018-04-19T18:13:46.443Z,4.03
2018-04-19T18:16:14.072Z,4.17
2018-04-19T18:18:41.733Z,5.20
2018-04-19T18:21:09.363Z,5.07
2018-04-19T18:23:36.977Z,4.80
2018-04-19T18:26:04.810Z,4.37
2018-04-19T18:28:32.458Z,6.23
2018-04-19T18:31:00.143Z,4.60
2018-04-19T18:33:27.921Z,4.80
2018-04-19T18:35:55.944Z,4.70
2018-04-19T18:38:23.536Z,6.20
2018-04-19T18:40:51.265Z,6.70
2018-04-19T18:43:18.979Z,5.97
2018-04-19T18:45:46.928Z,6.30
2018-04-19T18:48:14.600Z,6.33
2018-04-19T18:50:42.395Z,7.47
2018-04-19T18:53:10.150Z,7.00
2018-04-19T18:55:38.187Z,7.63
2018-04-19T18:58:05.780Z,8.00
2018-04-19T19:00:33.413Z,8.07
2018-04-19T19:03:01.055Z,7.23
2018-04-19T19:05:28.859Z,8.57
2018-04-19T19:07:56.546Z,8.57
2018-04-19T19:10:24.222Z,9.17
2018-04-19T19:12:51.829Z,9.83
2018-04-19T19:18:50.605Z,12.00
2018-04-19T19:21:18.199Z,10.43
2018-04-19T19:23:45.782Z,11.30
2018-04-19T19:26:13.463Z,12.07
2018-04-19T19:28:41.123Z,11.70
2018-04-19T19:31:08.835Z,12.87
2018-04-19T19:33:36.671Z,11.63
2018-04-19T19:36:04.297Z,12.63
2018-04-19T19:38:32.098Z,13.03
2018-04-19T19:41:00.023Z,12.00
2018-04-19T19:43:27.783Z,13.43
2018-04-19T19:45:55.573Z,13.70
2018-04-19T19:48:23.502Z,12.63
2018-04-19T19:50:51.105Z,13.00
2018-04-19T19:53:18.821Z,14.10
2018-04-19T19:55:46.430Z,13.23
2018-04-19T19:58:14.065Z,12.53
2018-04-19T20:00:41.683Z,12.37
2018-04-19T20:03:09.339Z,12.67
2018-04-19T20:05:37.003Z,11.53
2018-04-19T20:08:04.681Z,11.37
2018-04-19T20:10:32.367Z,11.43
2018-04-19T20:12:59.990Z,12.37
2018-04-19T20:15:27.740Z,12.37
2018-04-19T20:17:56.657Z,11.70
2018-04-19T20:20:24.435Z,11.40
2018-04-19T20:22:52.171Z,13.80
2018-04-19T20:25:19.940Z,12.40
2018-04-19T20:27:47.854Z,13.90
2018-04-19T20:30:15.583Z,12.60
2018-04-19T20:32:43.561Z,12.30
2018-04-19T20:35:11.256Z,13.70
2018-04-19T20:37:39.095Z,12.77
2018-04-19T20:40:07.027Z,13.80
2018-04-19T20:42:35.060Z,14.57
2018-04-19T20:45:02.895Z,13.60
2018-04-19T20:47:30.568Z,13.70
2018-04-19T20:49:58.301Z,15.73
2018-04-19T20:52:26.037Z,15.57
2018-04-19T20:54:53.660Z,16.67
2018-04-19T20:57:21.442Z,16.50
2018-04-19T20:59:49.236Z,16.83
2018-04-19T21:02:16.882Z,15.87
2018-04-19T21:04:45.005Z,16.77
2018-04-19T21:07:12.998Z,16.57
2018-04-19T21:09:40.677Z,16.07
2018-04-19T21:12:08.748Z,15.73
2018-04-19T21:14:36.348Z,16.40
2018-04-19T21:17:04.051Z,14.93
2018-04-19T21:19:31.755Z,17.23
2018-04-19T21:21:59.388Z,16.70
2018-04-19T21:24:27.008Z,17.20
2018-04-19T21:26:54.712Z,17.67
2018-04-19T21:29:22.391Z,17.90
2018-04-19T21:31:50.229Z,17.40
2018-04-19T21:34:18.297Z,18.87
2018-04-19T21:36:46.221Z,18.27
2018-04-19T21:39:13.957Z,18.63
2018-04-19T21:41:42.273Z,18.17
2018-04-19T21:44:09.976Z,18.07
2018-04-19T21:46:37.600Z,19.03
2018-04-19T21:49:05.364Z,19.40
2018-04-19T21:51:33.109Z,20.40
2018-04-19T21:54:00.785Z,19.30
2018-04-19T21:56:28.469Z,20.67
2018-04-19T21:58:56.126Z,18.37
2018-04-19T22:01:23.889Z,21.00
2018-04-19T22:03:51.651Z,19.73
2018-04-19T22:06:19.290Z,22.10
2018-04-19T22:08:46.935Z,21.67
2018-04-19T22:11:14.700Z,18.87
2018-04-19T22:13:43.256Z,19.63
2018-04-19T22:16:11.328Z,20.97
2018-04-19T22:18:38.994Z,22.03
2018-04-19T22:21:07.184Z,20.03
2018-04-19T22:23:34.912Z,22.00
2018-04-19T22:26:02.648Z,22.20
2018-04-19T22:28:30.373Z,23.37
2018-04-19T22:30:57.984Z,21.90
2018-04-19T22:33:25.599Z,21.27
2018-04-19T22:35:53.274Z,21.33
2018-04-19T22:38:20.961Z,20.10
2018-04-19T22:40:48.824Z,21.53
2018-04-19T22:43:16.517Z,20.37
2018-04-19T22:45:44.148Z,20.80
2018-04-19T22:48:11.844Z,20.03
2018-04-19T22:50:39.849Z,22.47
2018-04-19T22:53:07.882Z,23.40
2018-04-19T22:55:35.772Z,21.17
2018-04-19T22:58:03.396Z,22.23
2018-04-19T23:00:31.256Z,22.33
2018-04-19T23:02:58.915Z,23.67
2018-04-19T23:05:26.830Z,20.70
2018-04-19T23:07:55.026Z,22.80
2018-04-19T23:10:22.619Z,20.60
2018-04-19T23:12:50.215Z,23.00
2018-04-19T23:15:17.927Z,21.67
2018-04-19T23:17:45.533Z,22.40
2018-04-19T23:20:13.141Z,20.80
2018-04-19T23:22:41.098Z,20.43
2018-04-19T23:25:09.003Z,22.23
2018-04-19T23:27:36.664Z,20.23
2018-04-19T23:30:04.626Z,20.70
2018-04-19T23:32:32.569Z,20.50
2018-04-19T23:35:00.638Z,18.87
2018-04-19T23:37:28.384Z,21.90
2018-04-19T23:39:56.096Z,20.50
2018-04-19T23:42:23.699Z,21.30
2018-04-19T23:44:51.384Z,21.33
2018-04-19T23:47:19.020Z,20.97
2018-04-19T23:49:46.767Z,21.03
2018-04-19T23:52:14.450Z,19.07
2018-04-19T23:54:42.142Z,19.80
2018-04-19T23:57:10.049Z,19.93
2018-04-19T23:59:38.163Z,20.60
